sensor_id;sensor_type;location;lat;lon;timestamp;P1;durP1;ratioP1;P2;durP2;ratioP2
2480;SDS011;57396;48.742;9.128;2023-12-29T00:01:44;4.20;;;2.90;;
2480;SDS011;57396;48.742;9.128;2023-12-29T00:04:10;3.40;;;2.83;;
2480;SDS011;57396;48.742;9.128;2023-12-29T00:06:38;2.80;;;2.60;;
2480;SDS011;57396;48.742;9.128;2023-12-29T00:09:04;3.73;;;3.10;;
2480;SDS011;57396;48.742;9.128;2023-12-29T00:11:30;3.40;;;2.70;;
2480;SDS011;57396;48.742;9.128;2023-12-29T00:13:55;5.60;;;2.60;;
2480;SDS011;57396;48.742;9.128;2023-12-29T00:16:20;3.40;;;2.97;;
2480;SDS011;57396;48.742;9.128;2023-12-29T00:18:46;3.03;;;2.73;;
2480;SDS011;57396;48.742;9.128;2023-12-29T00:21:11;3.43;;;2.87;;
2480;SDS011;57396;48.742;9.128;2023-12-29T00:23:37;3.33;;;3.03;;
2480;SDS011;57396;48.742;9.128;2023-12-29T00:26:02;4.50;;;2.87;;
2480;SDS011;57396;48.742;9.128;2023-12-29T00:28:28;3.03;;;2.83;;
2480;SDS011;57396;48.742;9.128;2023-12-29T00:30:53;4.33;;;3.00;;
2480;SDS011;57396;48.742;9.128;2023-12-29T00:33:19;2.77;;;2.57;;
2480;SDS011;57396;48.742;9.128;2023-12-29T00:35:44;3.40;;;2.90;;
2480;SDS011;57396;48.742;9.128;2023-12-29T00:38:10;3.20;;;2.70;;
2480;SDS011;57396;48.742;9.128;2023-12-29T00:40:35;2.90;;;2.67;;
2480;SDS011;57396;48.742;9.128;2023-12-29T00:43:01;2.70;;;2.50;;
2480;SDS011;57396;48.742;9.128;2023-12-29T00:45:26;3.10;;;2.70;;
2480;SDS011;57396;48.742;9.128;2023-12-29T00:47:57;3.13;;;2.83;;
2480;SDS011;57396;48.742;9.128;2023-12-29T00:50:22;4.30;;;3.10;;
2480;SDS011;57396;48.742;9.128;2023-12-29T00:52:48;5.20;;;3.10;;
2480;SDS011;57396;48.742;9.128;2023-12-29T00:55:13;3.20;;;2.50;;
2480;SDS011;57396;48.742;9.128;2023-12-29T00:57:39;3.13;;;2.83;;
2480;SDS011;57396;48.742;9.128;2023-12-29T01:00:04;4.43;;;2.80;;
2480;SDS011;57396;48.742;9.128;2023-12-29T01:02:30;3.20;;;2.90;;
2480;SDS011;57396;48.742;9.128;2023-12-29T01:04:56;4.30;;;3.20;;
2480;SDS011;57396;48.742;9.128;2023-12-29T01:07:21;3.03;;;2.80;;
2480;SDS011;57396;48.742;9.128;2023-12-29T01:09:47;3.37;;;3.10;;
2480;SDS011;57396;48.742;9.128;2023-12-29T01:12:12;3.53;;;3.17;;
2480;SDS011;57396;48.742;9.128;2023-12-29T01:14:40;3.43;;;3.00;;
2480;SDS011;57396;48.742;9.128;2023-12-29T01:17:05;3.63;;;3.30;;
2480;SDS011;57396;48.742;9.128;2023-12-29T01:19:31;2.73;;;2.50;;
2480;SDS011;57396;48.742;9.128;2023-12-29T01:21:56;3.27;;;2.97;;
2480;SDS011;57396;48.742;9.128;2023-12-29T01:24:21;3.13;;;2.83;;
2480;SDS011;57396;48.742;9.128;2023-12-29T01:26:47;4.57;;;3.20;;
2480;SDS011;57396;48.742;9.128;2023-12-29T01:29:12;4.17;;;3.77;;
2480;SDS011;57396;48.742;9.128;2023-12-29T01:31:38;3.10;;;2.90;;
2480;SDS011;57396;48.742;9.128;2023-12-29T01:34:04;3.83;;;3.00;;
2480;SDS011;57396;48.742;9.128;2023-12-29T01:36:30;3.50;;;3.20;;
2480;SDS011;57396;48.742;9.128;2023-12-29T01:38:55;8.87;;;3.33;;
2480;SDS011;57396;48.742;9.128;2023-12-29T01:41:21;3.93;;;3.53;;
2480;SDS011;57396;48.742;9.128;2023-12-29T01:46:32;3.50;;;3.20;;
2480;SDS011;57396;48.742;9.128;2023-12-29T01:48:58;3.60;;;2.80;;
2480;SDS011;57396;48.742;9.128;2023-12-29T01:51:25;4.40;;;3.00;;
2480;SDS011;57396;48.742;9.128;2023-12-29T01:53:54;4.60;;;3.20;;
2480;SDS011;57396;48.742;9.128;2023-12-29T01:56:21;5.00;;;3.47;;
2480;SDS011;57396;48.742;9.128;2023-12-29T01:58:50;5.13;;;3.87;;
2480;SDS011;57396;48.742;9.128;2023-12-29T02:01:16;3.60;;;3.30;;
2480;SDS011;57396;48.742;9.128;2023-12-29T02:03:43;3.83;;;3.40;;
2480;SDS011;57396;48.742;9.128;2023-12-29T02:06:10;5.13;;;3.60;;
2480;SDS011;57396;48.742;9.128;2023-12-29T02:08:40;7.60;;;3.20;;
2480;SDS011;57396;48.742;9.128;2023-12-29T02:11:05;4.10;;;3.30;;
2480;SDS011;57396;48.742;9.128;2023-12-29T02:13:31;4.90;;;3.40;;
2480;SDS011;57396;48.742;9.128;2023-12-29T02:15:59;4.53;;;3.70;;
2480;SDS011;57396;48.742;9.128;2023-12-29T02:18:27;3.97;;;3.67;;
2480;SDS011;57396;48.742;9.128;2023-12-29T02:20:55;3.87;;;3.57;;
2480;SDS011;57396;48.742;9.128;2023-12-29T02:23:20;5.20;;;4.20;;
2480;SDS011;57396;48.742;9.128;2023-12-29T02:25:46;4.23;;;3.30;;
2480;SDS011;57396;48.742;9.128;2023-12-29T02:28:15;4.80;;;3.70;;
2480;SDS011;57396;48.742;9.128;2023-12-29T02:30:47;4.17;;;3.67;;
2480;SDS011;57396;48.742;9.128;2023-12-29T02:33:20;4.33;;;3.80;;
2480;SDS011;57396;48.742;9.128;2023-12-29T02:35:46;5.10;;;3.77;;
2480;SDS011;57396;48.742;9.128;2023-12-29T02:38:14;6.13;;;3.30;;
2480;SDS011;57396;48.742;9.128;2023-12-29T02:40:40;3.97;;;3.67;;
2480;SDS011;57396;48.742;9.128;2023-12-29T02:43:05;3.83;;;3.50;;
2480;SDS011;57396;48.742;9.128;2023-12-29T02:45:31;6.70;;;3.73;;
2480;SDS011;57396;48.742;9.128;2023-12-29T02:47:56;5.17;;;3.50;;
2480;SDS011;57396;48.742;9.128;2023-12-29T02:50:22;6.67;;;3.70;;
2480;SDS011;57396;48.742;9.128;2023-12-29T02:52:47;6.20;;;4.30;;
2480;SDS011;57396;48.742;9.128;2023-12-29T02:55:13;4.13;;;3.57;;
2480;SDS011;57396;48.742;9.128;2023-12-29T02:57:38;5.87;;;4.10;;
2480;SDS011;57396;48.742;9.128;2023-12-29T03:00:04;4.93;;;3.90;;
2480;SDS011;57396;48.742;9.128;2023-12-29T03:02:31;4.30;;;3.90;;
2480;SDS011;57396;48.742;9.128;2023-12-29T03:04:56;4.40;;;3.90;;
2480;SDS011;57396;48.742;9.128;2023-12-29T03:07:21;4.63;;;4.00;;
2480;SDS011;57396;48.742;9.128;2023-12-29T03:09:47;5.30;;;3.50;;
2480;SDS011;57396;48.742;9.128;2023-12-29T03:12:12;6.43;;;4.10;;
2480;SDS011;57396;48.742;9.128;2023-12-29T03:14:38;4.40;;;4.00;;
2480;SDS011;57396;48.742;9.128;2023-12-29T03:17:03;3.57;;;3.27;;
2480;SDS011;57396;48.742;9.128;2023-12-29T03:19:29;4.10;;;3.70;;
2480;SDS011;57396;48.742;9.128;2023-12-29T03:21:54;5.03;;;3.80;;
2480;SDS011;57396;48.742;9.128;2023-12-29T03:24:20;4.33;;;3.73;;
2480;SDS011;57396;48.742;9.128;2023-12-29T03:26:46;6.33;;;3.80;;
2480;SDS011;57396;48.742;9.128;2023-12-29T03:29:11;4.93;;;3.73;;
2480;SDS011;57396;48.742;9.128;2023-12-29T03:31:36;5.63;;;3.93;;
2480;SDS011;57396;48.742;9.128;2023-12-29T03:34:02;3.63;;;3.33;;
2480;SDS011;57396;48.742;9.128;2023-12-29T03:36:27;4.30;;;3.47;;
2480;SDS011;57396;48.742;9.128;2023-12-29T03:38:53;5.00;;;3.80;;
2480;SDS011;57396;48.742;9.128;2023-12-29T03:41:18;4.33;;;3.93;;
2480;SDS011;57396;48.742;9.128;2023-12-29T03:43:44;4.13;;;3.27;;
2480;SDS011;57396;48.742;9.128;2023-12-29T03:46:16;4.20;;;2.90;;
2480;SDS011;57396;48.742;9.128;2023-12-29T03:48:42;3.67;;;2.80;;
2480;SDS011;57396;48.742;9.128;2023-12-29T03:51:08;3.70;;;3.30;;
2480;SDS011;57396;48.742;9.128;2023-12-29T03:53:33;4.03;;;3.30;;
2480;SDS011;57396;48.742;9.128;2023-12-29T03:55:59;5.37;;;3.50;;
2480;SDS011;57396;48.742;9.128;2023-12-29T03:58:24;4.47;;;3.37;;
2480;SDS011;57396;48.742;9.128;2023-12-29T04:00:49;3.70;;;2.63;;
2480;SDS011;57396;48.742;9.128;2023-12-29T04:03:15;4.20;;;3.33;;
2480;SDS011;57396;48.742;9.128;2023-12-29T04:05:40;3.73;;;3.43;;
2480;SDS011;57396;48.742;9.128;2023-12-29T04:08:06;7.73;;;2.80;;
2480;SDS011;57396;48.742;9.128;2023-12-29T04:10:31;2.90;;;2.60;;
2480;SDS011;57396;48.742;9.128;2023-12-29T04:12:57;4.17;;;3.77;;
2480;SDS011;57396;48.742;9.128;2023-12-29T04:15:22;4.10;;;3.20;;
2480;SDS011;57396;48.742;9.128;2023-12-29T04:17:47;4.13;;;3.30;;
2480;SDS011;57396;48.742;9.128;2023-12-29T04:20:13;3.30;;;2.67;;
2480;SDS011;57396;48.742;9.128;2023-12-29T04:22:38;3.90;;;3.10;;
2480;SDS011;57396;48.742;9.128;2023-12-29T04:25:04;3.30;;;3.00;;
2480;SDS011;57396;48.742;9.128;2023-12-29T04:27:29;4.40;;;3.27;;
2480;SDS011;57396;48.742;9.128;2023-12-29T04:29:55;3.70;;;3.10;;
2480;SDS011;57396;48.742;9.128;2023-12-29T04:32:20;4.00;;;3.10;;
2480;SDS011;57396;48.742;9.128;2023-12-29T04:34:46;4.13;;;2.80;;
2480;SDS011;57396;48.742;9.128;2023-12-29T04:37:11;5.00;;;3.00;;
2480;SDS011;57396;48.742;9.128;2023-12-29T04:39:37;3.73;;;3.17;;
2480;SDS011;57396;48.742;9.128;2023-12-29T04:42:02;3.43;;;3.13;;
2480;SDS011;57396;48.742;9.128;2023-12-29T04:44:28;4.27;;;3.13;;
2480;SDS011;57396;48.742;9.128;2023-12-29T04:46:53;3.37;;;3.00;;
2480;SDS011;57396;48.742;9.128;2023-12-29T04:49:19;4.07;;;3.67;;
2480;SDS011;57396;48.742;9.128;2023-12-29T04:51:44;3.50;;;3.20;;
2480;SDS011;57396;48.742;9.128;2023-12-29T04:54:10;4.30;;;3.50;;
2480;SDS011;57396;48.742;9.128;2023-12-29T04:56:35;3.27;;;2.97;;
2480;SDS011;57396;48.742;9.128;2023-12-29T04:59:00;3.47;;;3.17;;
2480;SDS011;57396;48.742;9.128;2023-12-29T05:01:26;4.80;;;3.30;;
2480;SDS011;57396;48.742;9.128;2023-12-29T05:03:51;3.87;;;3.53;;
2480;SDS011;57396;48.742;9.128;2023-12-29T05:06:17;3.70;;;3.40;;
2480;SDS011;57396;48.742;9.128;2023-12-29T05:08:42;4.90;;;4.07;;
2480;SDS011;57396;48.742;9.128;2023-12-29T05:11:08;3.47;;;3.17;;
2480;SDS011;57396;48.742;9.128;2023-12-29T05:13:33;4.30;;;3.20;;
2480;SDS011;57396;48.742;9.128;2023-12-29T05:15:58;6.87;;;3.37;;
2480;SDS011;57396;48.742;9.128;2023-12-29T05:18:24;3.23;;;2.93;;
2480;SDS011;57396;48.742;9.128;2023-12-29T05:20:52;3.50;;;3.20;;
2480;SDS011;57396;48.742;9.128;2023-12-29T05:23:18;3.80;;;3.27;;
2480;SDS011;57396;48.742;9.128;2023-12-29T05:25:43;3.40;;;3.10;;
2480;SDS011;57396;48.742;9.128;2023-12-29T05:28:09;3.57;;;3.00;;
2480;SDS011;57396;48.742;9.128;2023-12-29T05:30:34;3.20;;;2.90;;
2480;SDS011;57396;48.742;9.128;2023-12-29T05:33:00;5.33;;;3.00;;
2480;SDS011;57396;48.742;9.128;2023-12-29T05:35:25;3.47;;;3.17;;
2480;SDS011;57396;48.742;9.128;2023-12-29T05:37:50;3.30;;;3.10;;
2480;SDS011;57396;48.742;9.128;2023-12-29T05:40:16;3.37;;;3.07;;
2480;SDS011;57396;48.742;9.128;2023-12-29T05:42:41;5.37;;;3.03;;
2480;SDS011;57396;48.742;9.128;2023-12-29T05:45:07;3.90;;;3.00;;
2480;SDS011;57396;48.742;9.128;2023-12-29T05:47:33;3.10;;;2.80;;
2480;SDS011;57396;48.742;9.128;2023-12-29T05:49:59;3.93;;;2.60;;
2480;SDS011;57396;48.742;9.128;2023-12-29T05:52:24;3.87;;;3.00;;
2480;SDS011;57396;48.742;9.128;2023-12-29T05:54:49;4.13;;;3.00;;
2480;SDS011;57396;48.742;9.128;2023-12-29T05:57:15;3.80;;;3.10;;
2480;SDS011;57396;48.742;9.128;2023-12-29T05:59:41;4.03;;;3.50;;
2480;SDS011;57396;48.742;9.128;2023-12-29T06:02:06;3.60;;;3.30;;
2480;SDS011;57396;48.742;9.128;2023-12-29T06:04:32;5.37;;;3.30;;
2480;SDS011;57396;48.742;9.128;2023-12-29T06:06:57;4.57;;;3.00;;
2480;SDS011;57396;48.742;9.128;2023-12-29T06:09:23;3.07;;;2.87;;
2480;SDS011;57396;48.742;9.128;2023-12-29T06:11:49;3.70;;;3.40;;
2480;SDS011;57396;48.742;9.128;2023-12-29T06:14:14;4.93;;;3.03;;
2480;SDS011;57396;48.742;9.128;2023-12-29T06:16:40;3.03;;;2.83;;
2480;SDS011;57396;48.742;9.128;2023-12-29T06:19:05;13.80;;;2.87;;
2480;SDS011;57396;48.742;9.128;2023-12-29T06:21:31;5.80;;;3.17;;
2480;SDS011;57396;48.742;9.128;2023-12-29T06:23:56;4.97;;;3.23;;
2480;SDS011;57396;48.742;9.128;2023-12-29T06:26:22;3.20;;;2.80;;
2480;SDS011;57396;48.742;9.128;2023-12-29T06:28:48;4.10;;;2.63;;
2480;SDS011;57396;48.742;9.128;2023-12-29T06:31:13;3.00;;;2.80;;
2480;SDS011;57396;48.742;9.128;2023-12-29T06:33:42;3.43;;;2.50;;
2480;SDS011;57396;48.742;9.128;2023-12-29T06:36:08;3.90;;;3.13;;
2480;SDS011;57396;48.742;9.128;2023-12-29T06:38:34;3.20;;;2.90;;
2480;SDS011;57396;48.742;9.128;2023-12-29T06:41:01;3.30;;;3.03;;
2480;SDS011;57396;48.742;9.128;2023-12-29T06:43:29;3.90;;;3.20;;
2480;SDS011;57396;48.742;9.128;2023-12-29T06:45:55;2.97;;;2.77;;
2480;SDS011;57396;48.742;9.128;2023-12-29T06:48:20;2.87;;;2.60;;
2480;SDS011;57396;48.742;9.128;2023-12-29T06:50:46;3.80;;;3.27;;
2480;SDS011;57396;48.742;9.128;2023-12-29T06:53:11;2.80;;;2.60;;
2480;SDS011;57396;48.742;9.128;2023-12-29T06:55:37;3.00;;;2.80;;
2480;SDS011;57396;48.742;9.128;2023-12-29T06:58:03;3.07;;;2.80;;
2480;SDS011;57396;48.742;9.128;2023-12-29T07:00:29;3.00;;;2.80;;
2480;SDS011;57396;48.742;9.128;2023-12-29T07:02:54;3.97;;;3.23;;
2480;SDS011;57396;48.742;9.128;2023-12-29T07:05:20;3.90;;;3.17;;
2480;SDS011;57396;48.742;9.128;2023-12-29T07:07:46;3.60;;;3.30;;
2480;SDS011;57396;48.742;9.128;2023-12-29T07:10:14;5.07;;;3.70;;
2480;SDS011;57396;48.742;9.128;2023-12-29T07:12:43;7.77;;;3.50;;
2480;SDS011;57396;48.742;9.128;2023-12-29T07:15:08;3.47;;;3.10;;
2480;SDS011;57396;48.742;9.128;2023-12-29T07:17:34;3.63;;;3.20;;
2480;SDS011;57396;48.742;9.128;2023-12-29T07:20:00;3.03;;;2.77;;
2480;SDS011;57396;48.742;9.128;2023-12-29T07:22:25;2.77;;;2.57;;
2480;SDS011;57396;48.742;9.128;2023-12-29T07:24:51;4.43;;;2.80;;
2480;SDS011;57396;48.742;9.128;2023-12-29T07:27:16;3.00;;;2.80;;
2480;SDS011;57396;48.742;9.128;2023-12-29T07:29:42;2.93;;;2.63;;
2480;SDS011;57396;48.742;9.128;2023-12-29T07:32:07;3.70;;;2.70;;
2480;SDS011;57396;48.742;9.128;2023-12-29T07:34:33;5.60;;;3.10;;
2480;SDS011;57396;48.742;9.128;2023-12-29T07:36:58;2.57;;;2.37;;
2480;SDS011;57396;48.742;9.128;2023-12-29T07:39:24;2.53;;;2.33;;
2480;SDS011;57396;48.742;9.128;2023-12-29T07:41:49;4.23;;;3.17;;
2480;SDS011;57396;48.742;9.128;2023-12-29T07:44:16;5.30;;;2.70;;
2480;SDS011;57396;48.742;9.128;2023-12-29T07:46:42;3.17;;;2.87;;
2480;SDS011;57396;48.742;9.128;2023-12-29T07:49:08;3.00;;;2.60;;
2480;SDS011;57396;48.742;9.128;2023-12-29T07:51:33;5.67;;;2.80;;
2480;SDS011;57396;48.742;9.128;2023-12-29T07:53:59;3.37;;;2.70;;
2480;SDS011;57396;48.742;9.128;2023-12-29T07:56:24;7.73;;;3.07;;
2480;SDS011;57396;48.742;9.128;2023-12-29T07:58:50;5.67;;;2.97;;
2480;SDS011;57396;48.742;9.128;2023-12-29T08:01:15;4.40;;;2.87;;
2480;SDS011;57396;48.742;9.128;2023-12-29T08:03:41;3.97;;;2.97;;
2480;SDS011;57396;48.742;9.128;2023-12-29T08:06:06;4.43;;;3.00;;
2480;SDS011;57396;48.742;9.128;2023-12-29T08:08:32;2.70;;;2.50;;
2480;SDS011;57396;48.742;9.128;2023-12-29T08:10:57;2.60;;;2.40;;
2480;SDS011;57396;48.742;9.128;2023-12-29T08:13:23;3.33;;;3.00;;
2480;SDS011;57396;48.742;9.128;2023-12-29T08:15:48;3.50;;;2.53;;
2480;SDS011;57396;48.742;9.128;2023-12-29T08:18:13;2.70;;;2.50;;
2480;SDS011;57396;48.742;9.128;2023-12-29T08:20:39;2.73;;;2.53;;
2480;SDS011;57396;48.742;9.128;2023-12-29T08:23:04;2.73;;;2.53;;
2480;SDS011;57396;48.742;9.128;2023-12-29T08:25:30;4.17;;;2.37;;
2480;SDS011;57396;48.742;9.128;2023-12-29T08:27:55;3.20;;;2.90;;
2480;SDS011;57396;48.742;9.128;2023-12-29T08:30:21;3.20;;;2.43;;
2480;SDS011;57396;48.742;9.128;2023-12-29T08:32:47;3.87;;;2.27;;
2480;SDS011;57396;48.742;9.128;2023-12-29T08:35:12;4.03;;;2.77;;
2480;SDS011;57396;48.742;9.128;2023-12-29T08:37:38;2.83;;;2.53;;
2480;SDS011;57396;48.742;9.128;2023-12-29T08:40:03;4.50;;;2.73;;
2480;SDS011;57396;48.742;9.128;2023-12-29T08:42:29;3.70;;;2.70;;
2480;SDS011;57396;48.742;9.128;2023-12-29T08:44:55;3.07;;;2.83;;
2480;SDS011;57396;48.742;9.128;2023-12-29T08:47:20;3.03;;;2.80;;
2480;SDS011;57396;48.742;9.128;2023-12-29T08:49:45;5.27;;;2.80;;
2480;SDS011;57396;48.742;9.128;2023-12-29T08:52:13;3.20;;;2.90;;
2480;SDS011;57396;48.742;9.128;2023-12-29T08:54:39;4.03;;;3.07;;
2480;SDS011;57396;48.742;9.128;2023-12-29T08:57:04;3.33;;;3.03;;
2480;SDS011;57396;48.742;9.128;2023-12-29T08:59:31;3.30;;;2.77;;
2480;SDS011;57396;48.742;9.128;2023-12-29T09:01:57;3.23;;;3.00;;
2480;SDS011;57396;48.742;9.128;2023-12-29T09:04:22;3.83;;;2.63;;
2480;SDS011;57396;48.742;9.128;2023-12-29T09:06:48;5.33;;;3.10;;
2480;SDS011;57396;48.742;9.128;2023-12-29T09:09:13;3.30;;;2.63;;
2480;SDS011;57396;48.742;9.128;2023-12-29T09:11:39;6.53;;;2.70;;
2480;SDS011;57396;48.742;9.128;2023-12-29T09:14:05;3.27;;;2.57;;
2480;SDS011;57396;48.742;9.128;2023-12-29T09:16:30;4.40;;;2.37;;
2480;SDS011;57396;48.742;9.128;2023-12-29T09:18:56;2.97;;;2.33;;
2480;SDS011;57396;48.742;9.128;2023-12-29T09:21:21;2.50;;;2.30;;
2480;SDS011;57396;48.742;9.128;2023-12-29T09:23:47;3.60;;;3.30;;
2480;SDS011;57396;48.742;9.128;2023-12-29T09:26:13;3.50;;;2.20;;
2480;SDS011;57396;48.742;9.128;2023-12-29T09:28:41;2.47;;;2.20;;
2480;SDS011;57396;48.742;9.128;2023-12-29T09:31:06;3.00;;;2.00;;
2480;SDS011;57396;48.742;9.128;2023-12-29T09:33:32;3.03;;;2.20;;
2480;SDS011;57396;48.742;9.128;2023-12-29T09:35:57;6.00;;;2.77;;
2480;SDS011;57396;48.742;9.128;2023-12-29T09:38:23;2.97;;;2.63;;
2480;SDS011;57396;48.742;9.128;2023-12-29T09:40:48;2.37;;;2.17;;
2480;SDS011;57396;48.742;9.128;2023-12-29T09:43:14;4.20;;;2.20;;
2480;SDS011;57396;48.742;9.128;2023-12-29T09:45:39;2.43;;;2.23;;
2480;SDS011;57396;48.742;9.128;2023-12-29T09:48:07;2.73;;;2.40;;
2480;SDS011;57396;48.742;9.128;2023-12-29T09:50:34;2.57;;;2.37;;
2480;SDS011;57396;48.742;9.128;2023-12-29T09:53:01;2.90;;;2.20;;
2480;SDS011;57396;48.742;9.128;2023-12-29T09:55:27;6.50;;;2.47;;
2480;SDS011;57396;48.742;9.128;2023-12-29T09:57:53;3.30;;;2.00;;
2480;SDS011;57396;48.742;9.128;2023-12-29T10:00:20;3.03;;;2.43;;
2480;SDS011;57396;48.742;9.128;2023-12-29T10:02:45;3.73;;;2.10;;
2480;SDS011;57396;48.742;9.128;2023-12-29T10:05:11;2.63;;;2.03;;
2480;SDS011;57396;48.742;9.128;2023-12-29T10:07:37;4.40;;;2.10;;
2480;SDS011;57396;48.742;9.128;2023-12-29T10:10:03;4.10;;;2.20;;
2480;SDS011;57396;48.742;9.128;2023-12-29T10:12:29;2.43;;;2.10;;
2480;SDS011;57396;48.742;9.128;2023-12-29T10:15:04;2.20;;;2.10;;
2480;SDS011;57396;48.742;9.128;2023-12-29T10:23:13;2.23;;;1.90;;
2480;SDS011;57396;48.742;9.128;2023-12-29T10:25:59;2.13;;;1.93;;
2480;SDS011;57396;48.742;9.128;2023-12-29T10:28:25;2.13;;;1.70;;
2480;SDS011;57396;48.742;9.128;2023-12-29T10:30:50;2.33;;;1.90;;
2480;SDS011;57396;48.742;9.128;2023-12-29T10:33:19;2.30;;;1.70;;
2480;SDS011;57396;48.742;9.128;2023-12-29T10:36:04;1.63;;;1.53;;
2480;SDS011;57396;48.742;9.128;2023-12-29T10:38:32;3.47;;;1.47;;
2480;SDS011;57396;48.742;9.128;2023-12-29T10:41:14;1.30;;;1.20;;
2480;SDS011;57396;48.742;9.128;2023-12-29T10:43:40;1.63;;;1.30;;
2480;SDS011;57396;48.742;9.128;2023-12-29T10:46:07;1.77;;;1.27;;
2480;SDS011;57396;48.742;9.128;2023-12-29T10:48:33;2.10;;;1.30;;
2480;SDS011;57396;48.742;9.128;2023-12-29T10:50:59;1.40;;;1.30;;
2480;SDS011;57396;48.742;9.128;2023-12-29T10:53:26;1.70;;;1.60;;
2480;SDS011;57396;48.742;9.128;2023-12-29T10:55:54;1.70;;;1.50;;
2480;SDS011;57396;48.742;9.128;2023-12-29T10:58:28;1.60;;;1.50;;
2480;SDS011;57396;48.742;9.128;2023-12-29T11:00:55;1.87;;;1.37;;
2480;SDS011;57396;48.742;9.128;2023-12-29T11:03:21;1.83;;;1.43;;
2480;SDS011;57396;48.742;9.128;2023-12-29T11:05:47;1.90;;;1.80;;
2480;SDS011;57396;48.742;9.128;2023-12-29T11:08:16;3.00;;;1.63;;
2480;SDS011;57396;48.742;9.128;2023-12-29T11:10:43;3.77;;;3.40;;
2480;SDS011;57396;48.742;9.128;2023-12-29T11:13:10;2.43;;;2.23;;
2480;SDS011;57396;48.742;9.128;2023-12-29T11:15:36;1.23;;;1.13;;
2480;SDS011;57396;48.742;9.128;2023-12-29T11:18:03;2.07;;;1.90;;
2480;SDS011;57396;48.742;9.128;2023-12-29T11:20:29;2.40;;;1.80;;
2480;SDS011;57396;48.742;9.128;2023-12-29T11:22:55;2.70;;;2.50;;
2480;SDS011;57396;48.742;9.128;2023-12-29T11:25:20;5.73;;;1.47;;
2480;SDS011;57396;48.742;9.128;2023-12-29T11:27:46;1.87;;;1.53;;
2480;SDS011;57396;48.742;9.128;2023-12-29T11:30:14;1.43;;;1.33;;
2480;SDS011;57396;48.742;9.128;2023-12-29T11:32:45;1.87;;;1.77;;
2480;SDS011;57396;48.742;9.128;2023-12-29T11:35:23;3.83;;;2.40;;
2480;SDS011;57396;48.742;9.128;2023-12-29T11:37:55;3.20;;;2.20;;
2480;SDS011;57396;48.742;9.128;2023-12-29T11:43:05;2.37;;;1.60;;
2480;SDS011;57396;48.742;9.128;2023-12-29T11:45:34;2.00;;;1.60;;
2480;SDS011;57396;48.742;9.128;2023-12-29T11:48:01;2.30;;;1.20;;
2480;SDS011;57396;48.742;9.128;2023-12-29T11:50:33;3.07;;;1.50;;
2480;SDS011;57396;48.742;9.128;2023-12-29T11:53:03;1.53;;;1.43;;
2480;SDS011;57396;48.742;9.128;2023-12-29T11:55:35;1.50;;;1.40;;
2480;SDS011;57396;48.742;9.128;2023-12-29T11:58:02;2.30;;;1.73;;
2480;SDS011;57396;48.742;9.128;2023-12-29T12:00:48;1.77;;;1.60;;
2480;SDS011;57396;48.742;9.128;2023-12-29T12:03:17;1.63;;;1.40;;
2480;SDS011;57396;48.742;9.128;2023-12-29T12:05:44;1.50;;;1.40;;
2480;SDS011;57396;48.742;9.128;2023-12-29T12:08:11;2.47;;;1.77;;
2480;SDS011;57396;48.742;9.128;2023-12-29T12:11:46;1.80;;;1.70;;
2480;SDS011;57396;48.742;9.128;2023-12-29T12:13:59;1.70;;;1.60;;
2480;SDS011;57396;48.742;9.128;2023-12-29T12:19:12;2.63;;;1.60;;
2480;SDS011;57396;48.742;9.128;2023-12-29T12:21:38;2.07;;;1.60;;
2480;SDS011;57396;48.742;9.128;2023-12-29T12:24:04;2.50;;;1.57;;
2480;SDS011;57396;48.742;9.128;2023-12-29T12:26:30;2.20;;;1.93;;
2480;SDS011;57396;48.742;9.128;2023-12-29T12:28:56;1.87;;;1.40;;
2480;SDS011;57396;48.742;9.128;2023-12-29T12:31:22;1.73;;;1.63;;
2480;SDS011;57396;48.742;9.128;2023-12-29T12:33:54;4.03;;;1.83;;
2480;SDS011;57396;48.742;9.128;2023-12-29T12:36:20;1.90;;;1.70;;
2480;SDS011;57396;48.742;9.128;2023-12-29T12:38:52;5.20;;;1.43;;
2480;SDS011;57396;48.742;9.128;2023-12-29T12:41:19;1.90;;;1.70;;
2480;SDS011;57396;48.742;9.128;2023-12-29T12:43:48;1.57;;;1.47;;
2480;SDS011;57396;48.742;9.128;2023-12-29T12:46:17;2.93;;;1.53;;
2480;SDS011;57396;48.742;9.128;2023-12-29T12:48:47;2.17;;;1.73;;
2480;SDS011;57396;48.742;9.128;2023-12-29T12:51:13;2.20;;;1.80;;
2480;SDS011;57396;48.742;9.128;2023-12-29T12:53:40;1.53;;;1.43;;
2480;SDS011;57396;48.742;9.128;2023-12-29T12:56:05;2.60;;;1.40;;
2480;SDS011;57396;48.742;9.128;2023-12-29T12:58:32;2.30;;;1.90;;
2480;SDS011;57396;48.742;9.128;2023-12-29T13:00:58;1.70;;;1.47;;
2480;SDS011;57396;48.742;9.128;2023-12-29T13:03:24;3.20;;;1.80;;
2480;SDS011;57396;48.742;9.128;2023-12-29T13:05:50;1.97;;;1.47;;
2480;SDS011;57396;48.742;9.128;2023-12-29T13:08:18;2.00;;;1.27;;
2480;SDS011;57396;48.742;9.128;2023-12-29T13:10:45;1.77;;;1.20;;
2480;SDS011;57396;48.742;9.128;2023-12-29T13:13:13;1.30;;;1.20;;
2480;SDS011;57396;48.742;9.128;2023-12-29T13:15:49;1.37;;;1.10;;
2480;SDS011;57396;48.742;9.128;2023-12-29T13:18:15;1.40;;;1.17;;
2480;SDS011;57396;48.742;9.128;2023-12-29T13:20:44;1.37;;;1.27;;
2480;SDS011;57396;48.742;9.128;2023-12-29T13:23:11;1.57;;;1.30;;
2480;SDS011;57396;48.742;9.128;2023-12-29T13:25:36;1.40;;;1.20;;
2480;SDS011;57396;48.742;9.128;2023-12-29T13:28:04;2.80;;;1.50;;
2480;SDS011;57396;48.742;9.128;2023-12-29T13:30:31;1.60;;;1.20;;
2480;SDS011;57396;48.742;9.128;2023-12-29T13:32:57;1.47;;;1.30;;
2480;SDS011;57396;48.742;9.128;2023-12-29T13:35:25;1.57;;;1.47;;
2480;SDS011;57396;48.742;9.128;2023-12-29T13:43:03;2.53;;;1.43;;
2480;SDS011;57396;48.742;9.128;2023-12-29T13:45:33;1.67;;;1.40;;
2480;SDS011;57396;48.742;9.128;2023-12-29T13:48:00;2.00;;;1.80;;
2480;SDS011;57396;48.742;9.128;2023-12-29T13:50:26;1.40;;;1.30;;
2480;SDS011;57396;48.742;9.128;2023-12-29T13:52:52;1.97;;;1.67;;
2480;SDS011;57396;48.742;9.128;2023-12-29T13:55:21;1.73;;;1.63;;
2480;SDS011;57396;48.742;9.128;2023-12-29T13:57:51;2.23;;;1.40;;
2480;SDS011;57396;48.742;9.128;2023-12-29T14:00:26;3.10;;;1.57;;
2480;SDS011;57396;48.742;9.128;2023-12-29T14:07:53;1.93;;;1.73;;
2480;SDS011;57396;48.742;9.128;2023-12-29T14:10:25;4.30;;;1.70;;
2480;SDS011;57396;48.742;9.128;2023-12-29T14:13:10;2.13;;;1.40;;
2480;SDS011;57396;48.742;9.128;2023-12-29T14:15:41;2.60;;;1.40;;
2480;SDS011;57396;48.742;9.128;2023-12-29T14:20:43;1.90;;;1.70;;
2480;SDS011;57396;48.742;9.128;2023-12-29T14:23:09;1.50;;;1.20;;
2480;SDS011;57396;48.742;9.128;2023-12-29T14:25:37;1.97;;;1.63;;
2480;SDS011;57396;48.742;9.128;2023-12-29T14:28:36;3.00;;;1.43;;
2480;SDS011;57396;48.742;9.128;2023-12-29T14:31:01;3.00;;;1.60;;
2480;SDS011;57396;48.742;9.128;2023-12-29T14:33:27;2.20;;;1.60;;
2480;SDS011;57396;48.742;9.128;2023-12-29T14:35:52;1.70;;;1.60;;
2480;SDS011;57396;48.742;9.128;2023-12-29T14:38:18;2.77;;;1.50;;
2480;SDS011;57396;48.742;9.128;2023-12-29T14:40:46;1.90;;;1.60;;
2480;SDS011;57396;48.742;9.128;2023-12-29T14:43:12;2.33;;;1.63;;
2480;SDS011;57396;48.742;9.128;2023-12-29T14:45:37;1.90;;;1.53;;
2480;SDS011;57396;48.742;9.128;2023-12-29T14:48:03;1.80;;;1.70;;
2480;SDS011;57396;48.742;9.128;2023-12-29T14:50:29;2.23;;;1.93;;
2480;SDS011;57396;48.742;9.128;2023-12-29T14:52:54;1.67;;;1.57;;
2480;SDS011;57396;48.742;9.128;2023-12-29T14:55:20;2.63;;;1.80;;
2480;SDS011;57396;48.742;9.128;2023-12-29T14:57:45;2.40;;;1.90;;
2480;SDS011;57396;48.742;9.128;2023-12-29T15:00:11;2.90;;;1.60;;
2480;SDS011;57396;48.742;9.128;2023-12-29T15:02:37;3.10;;;2.10;;
2480;SDS011;57396;48.742;9.128;2023-12-29T15:05:03;1.40;;;1.30;;
2480;SDS011;57396;48.742;9.128;2023-12-29T15:07:28;1.57;;;1.47;;
2480;SDS011;57396;48.742;9.128;2023-12-29T15:09:56;2.63;;;1.67;;
2480;SDS011;57396;48.742;9.128;2023-12-29T15:12:21;2.53;;;2.10;;
2480;SDS011;57396;48.742;9.128;2023-12-29T15:14:47;1.57;;;1.47;;
2480;SDS011;57396;48.742;9.128;2023-12-29T15:17:12;2.40;;;2.20;;
2480;SDS011;57396;48.742;9.128;2023-12-29T15:19:38;4.13;;;2.67;;
2480;SDS011;57396;48.742;9.128;2023-12-29T15:22:03;6.57;;;4.43;;
2480;SDS011;57396;48.742;9.128;2023-12-29T15:24:29;2.90;;;2.27;;